createdAt,value
2018-04-14T00:00:46.385Z,36.30
2018-04-14T00:03:13.944Z,33.60
2018-04-14T00:05:41.483Z,34.50
2018-04-14T00:08:09.051Z,33.87
2018-04-14T00:10:36.598Z,34.37
2018-04-14T00:13:04.175Z,35.27
2018-04-14T00:15:31.723Z,36.40
2018-04-14T00:17:59.277Z,34.90
2018-04-14T00:20:26.837Z,36.43
2018-04-14T00:22:54.396Z,34.93
2018-04-14T00:25:21.924Z,34.37
2018-04-14T00:27:49.479Z,33.60
2018-04-14T00:30:17.008Z,35.63
2018-04-14T00:32:44.544Z,33.33
2018-04-14T00:35:12.127Z,35.80
2018-04-14T00:37:39.679Z,34.57
2018-04-14T00:40:07.220Z,34.87
2018-04-14T00:42:34.794Z,32.97
2018-04-14T00:45:02.327Z,34.43
2018-04-14T00:47:29.867Z,35.00
2018-04-14T00:49:57.421Z,34.23
2018-04-14T00:52:25.099Z,33.17
2018-04-14T00:54:52.664Z,35.60
2018-04-14T00:57:20.244Z,33.17
2018-04-14T00:59:47.903Z,33.67
2018-04-14T01:02:15.495Z,33.83
2018-04-14T01:04:43.050Z,35.13
2018-04-14T01:07:10.610Z,34.67
2018-04-14T01:09:38.177Z,33.67
2018-04-14T01:12:05.740Z,34.93
2018-04-14T01:14:33.285Z,33.10
2018-04-14T01:17:00.907Z,32.73
2018-04-14T01:19:28.673Z,32.57
2018-04-14T01:21:56.252Z,32.30
2018-04-14T01:24:23.886Z,32.50
2018-04-14T01:26:51.549Z,31.40
2018-04-14T01:29:19.176Z,28.13
2018-04-14T01:31:47.340Z,25.57
2018-04-14T01:34:14.919Z,25.00
2018-04-14T01:36:42.987Z,25.27
2018-04-14T01:39:10.551Z,25.43
2018-04-14T01:41:38.494Z,23.80
2018-04-14T01:44:06.089Z,24.20
2018-04-14T01:46:33.982Z,23.13
2018-04-14T01:49:01.559Z,22.80
2018-04-14T01:51:29.248Z,21.30
2018-04-14T01:53:56.823Z,20.97
2018-04-14T01:56:24.361Z,21.00
2018-04-14T01:58:51.951Z,19.63
2018-04-14T02:01:19.508Z,21.83
2018-04-14T02:03:47.209Z,18.43
2018-04-14T02:06:14.763Z,16.77
2018-04-14T02:08:42.424Z,15.30
2018-04-14T02:11:09.965Z,14.63
2018-04-14T02:13:37.611Z,15.33
2018-04-14T02:16:05.216Z,15.00
2018-04-14T02:18:33.392Z,15.20
2018-04-14T02:21:01.090Z,14.60
2018-04-14T02:23:29.014Z,14.03
2018-04-14T02:25:56.643Z,14.03
2018-04-14T02:28:24.573Z,14.47
2018-04-14T02:30:52.150Z,14.00
2018-04-14T02:33:20.058Z,14.53
2018-04-14T02:35:47.646Z,14.07
2018-04-14T02:38:15.195Z,14.87
2018-04-14T02:40:42.822Z,13.80
2018-04-14T02:43:10.357Z,13.80
2018-04-14T02:45:37.930Z,13.73
2018-04-14T02:48:05.498Z,13.27
2018-04-14T02:50:33.071Z,13.77
2018-04-14T02:53:00.616Z,13.53
2018-04-14T02:55:28.256Z,13.27
2018-04-14T02:57:55.836Z,13.30
2018-04-14T03:00:23.436Z,13.80
2018-04-14T03:02:50.998Z,13.00
2018-04-14T03:05:18.597Z,13.20
2018-04-14T03:07:46.171Z,13.77
2018-04-14T03:10:14.551Z,13.00
2018-04-14T03:12:42.289Z,13.37
2018-04-14T03:15:10.357Z,13.23
2018-04-14T03:17:56.005Z,13.60
2018-04-14T03:20:23.587Z,13.57
2018-04-14T03:22:51.161Z,12.73
2018-04-14T03:25:18.758Z,12.33
2018-04-14T03:27:46.311Z,13.37
2018-04-14T03:30:13.865Z,13.30
2018-04-14T03:32:41.400Z,13.47
2018-04-14T03:35:08.991Z,13.13
2018-04-14T03:40:35.228Z,13.07
2018-04-14T03:43:02.772Z,13.17
2018-04-14T03:45:30.832Z,12.97
2018-04-14T03:47:58.399Z,12.50
2018-04-14T03:50:26.338Z,13.23
2018-04-14T03:52:53.946Z,12.33
2018-04-14T03:55:21.675Z,13.00
2018-04-14T03:57:49.241Z,12.43
2018-04-14T04:00:16.772Z,12.83
2018-04-14T04:02:44.469Z,13.23
2018-04-14T04:05:12.027Z,12.87
2018-04-14T04:07:39.612Z,12.10
2018-04-14T04:10:07.169Z,11.93
2018-04-14T04:12:34.745Z,12.53
2018-04-14T04:15:02.305Z,11.70
2018-04-14T04:17:29.929Z,12.43
2018-04-14T04:20:09.278Z,11.53
2018-04-14T04:22:49.661Z,12.50
2018-04-14T04:25:30.284Z,12.43
2018-04-14T04:27:57.839Z,12.37
2018-04-14T04:30:25.417Z,12.33
2018-04-14T04:32:53.059Z,14.17
2018-04-14T04:35:20.994Z,30.17
2018-04-14T04:37:48.643Z,30.93
2018-04-14T04:40:16.611Z,41.13
2018-04-14T04:42:44.720Z,45.80
2018-04-14T04:45:12.816Z,50.30
2018-04-14T04:47:40.363Z,51.63
2018-04-14T04:50:09.164Z,54.83
2018-04-14T04:52:36.899Z,52.03
2018-04-14T04:55:04.483Z,55.63
2018-04-14T04:57:32.510Z,55.47
2018-04-14T05:00:00.304Z,55.03
2018-04-14T05:02:28.741Z,56.30
2018-04-14T05:04:56.360Z,56.97
2018-04-14T05:07:23.905Z,54.37
2018-04-14T05:09:51.483Z,53.70
2018-04-14T05:12:19.034Z,56.10
2018-04-14T05:14:46.789Z,57.67
2018-04-14T05:17:14.389Z,57.40
2018-04-14T05:19:43.067Z,57.73
2018-04-14T05:22:11.158Z,57.83
2018-04-14T05:24:40.100Z,57.50
2018-04-14T05:27:08.147Z,59.03
2018-04-14T05:29:35.733Z,58.03
2018-04-14T05:32:03.637Z,60.17
2018-04-14T05:34:31.360Z,59.53
2018-04-14T05:36:59.372Z,60.20
2018-04-14T05:39:27.049Z,57.83
2018-04-14T05:41:54.610Z,59.03
2018-04-14T05:44:22.749Z,58.97
2018-04-14T05:46:50.305Z,58.50
2018-04-14T05:49:17.873Z,57.23
2018-04-14T05:51:45.433Z,59.27
2018-04-14T05:54:13.570Z,58.13
2018-04-14T05:56:41.172Z,58.23
2018-04-14T05:59:08.990Z,59.00
2018-04-14T06:01:36.561Z,59.60
2018-04-14T06:04:04.458Z,58.73
2018-04-14T06:06:32.026Z,59.87
2018-04-14T06:08:59.614Z,61.10
2018-04-14T06:11:27.159Z,59.10
2018-04-14T06:13:54.710Z,60.10
2018-04-14T06:16:22.270Z,59.93
2018-04-14T06:18:49.827Z,58.13
2018-04-14T06:21:17.389Z,56.80
2018-04-14T06:23:44.936Z,56.80
2018-04-14T06:26:12.524Z,57.57
2018-04-14T06:28:40.085Z,59.20
2018-04-14T06:31:07.667Z,56.67
2018-04-14T06:33:35.232Z,57.47
2018-04-14T06:36:02.790Z,54.67
2018-04-14T06:38:30.377Z,55.27
2018-04-14T06:40:57.929Z,54.93
2018-04-14T06:43:25.450Z,54.37
2018-04-14T06:45:53.031Z,52.67
2018-04-14T06:48:20.604Z,53.63
2018-04-14T06:50:48.165Z,54.57
2018-04-14T06:53:15.728Z,50.97
2018-04-14T06:55:43.294Z,53.60
2018-04-14T06:58:10.835Z,53.27
2018-04-14T07:00:38.369Z,51.43
2018-04-14T07:03:06.010Z,51.53
2018-04-14T07:05:33.600Z,52.10
2018-04-14T07:08:01.162Z,52.80
2018-04-14T07:10:28.715Z,50.97
2018-04-14T07:12:56.288Z,51.07
2018-04-14T07:15:24.584Z,50.70
2018-04-14T07:17:52.125Z,48.07
2018-04-14T07:20:19.895Z,49.33
2018-04-14T07:22:47.444Z,50.43
2018-04-14T07:25:15.519Z,48.83
2018-04-14T07:27:43.100Z,51.00
2018-04-14T07:30:10.967Z,55.67
2018-04-14T07:32:38.539Z,51.73
2018-04-14T07:35:06.498Z,49.83
2018-04-14T07:37:34.068Z,53.20
2018-04-14T07:40:01.645Z,52.00
2018-04-14T07:42:29.202Z,55.00
2018-04-14T07:44:56.743Z,64.23
2018-04-14T07:47:24.355Z,65.33
2018-04-14T07:49:51.925Z,67.33
2018-04-14T07:52:19.472Z,68.60
2018-04-14T07:54:47.006Z,66.97
2018-04-14T07:57:14.572Z,67.17
2018-04-14T07:59:42.131Z,68.30
2018-04-14T08:02:09.732Z,66.00
2018-04-14T08:04:37.305Z,66.90
2018-04-14T08:07:04.879Z,61.97
2018-04-14T08:09:32.428Z,59.87
2018-04-14T08:11:59.995Z,57.77
2018-04-14T08:14:27.548Z,57.27
2018-04-14T08:16:55.095Z,58.47
2018-04-14T08:19:22.672Z,52.77
2018-04-14T08:21:50.238Z,51.23
2018-04-14T08:24:17.801Z,47.43
2018-04-14T08:26:45.370Z,49.03
2018-04-14T08:29:12.920Z,47.57
2018-04-14T08:31:40.468Z,44.03
2018-04-14T08:34:07.995Z,47.90
2018-04-14T08:36:35.518Z,47.73
2018-04-14T08:39:03.116Z,49.13
2018-04-14T08:41:30.671Z,53.17
2018-04-14T08:43:58.230Z,50.80
2018-04-14T08:46:25.774Z,48.83
2018-04-14T08:48:53.338Z,46.93
2018-04-14T08:51:20.957Z,47.17
2018-04-14T08:53:48.515Z,49.83
2018-04-14T08:56:16.147Z,50.70
2018-04-14T08:58:43.676Z,49.27
2018-04-14T09:01:11.278Z,49.23
2018-04-14T09:03:38.827Z,50.57
2018-04-14T09:06:06.384Z,50.17
2018-04-14T09:08:33.960Z,48.27
2018-04-14T09:11:01.509Z,47.27
2018-04-14T09:13:29.054Z,47.73
2018-04-14T09:15:56.659Z,46.00
2018-04-14T09:18:24.250Z,44.87
2018-04-14T09:20:51.791Z,45.33
2018-04-14T09:23:19.606Z,45.27
2018-04-14T09:25:47.184Z,45.43
2018-04-14T09:28:14.726Z,43.97
2018-04-14T09:30:42.295Z,43.97
2018-04-14T09:33:09.839Z,41.87
2018-04-14T09:35:37.514Z,39.80
2018-04-14T09:38:05.086Z,39.07
2018-04-14T09:40:32.638Z,40.27
2018-04-14T09:43:00.187Z,37.73
2018-04-14T09:45:27.845Z,37.20
2018-04-14T09:47:55.368Z,37.23
2018-04-14T09:50:23.005Z,40.17
2018-04-14T09:52:50.564Z,37.03
2018-04-14T09:55:18.154Z,38.57
2018-04-14T09:57:45.689Z,39.10
2018-04-14T10:00:18.959Z,39.93
2018-04-14T10:02:46.521Z,40.33
2018-04-14T10:05:14.097Z,41.10
2018-04-14T10:07:41.669Z,40.73
2018-04-14T10:10:09.686Z,42.80
2018-04-14T10:12:37.221Z,41.03
2018-04-14T10:15:05.199Z,41.63
2018-04-14T10:17:32.885Z,41.30
2018-04-14T10:20:00.635Z,43.43
2018-04-14T10:22:29.149Z,45.47
2018-04-14T10:24:56.707Z,43.20
2018-04-14T10:27:24.472Z,45.87
2018-04-14T10:29:52.019Z,46.73
2018-04-14T10:32:19.590Z,44.80
2018-04-14T10:34:47.125Z,46.20
2018-04-14T10:37:14.724Z,44.70
2018-04-14T10:39:42.288Z,44.73
2018-04-14T10:42:10.266Z,45.47
2018-04-14T10:44:37.802Z,43.77
2018-04-14T10:47:05.897Z,47.07
2018-04-14T10:49:33.479Z,45.13
2018-04-14T10:52:01.366Z,47.67
2018-04-14T10:54:28.926Z,49.20
2018-04-14T10:56:56.476Z,47.33
2018-04-14T10:59:24.053Z,47.67
2018-04-14T11:01:51.602Z,46.00
2018-04-14T11:04:19.173Z,48.30
2018-04-14T11:06:46.741Z,43.97
2018-04-14T11:09:14.281Z,46.47
2018-04-14T11:11:41.803Z,48.47
2018-04-14T11:14:09.350Z,44.20
2018-04-14T11:16:36.958Z,47.37
2018-04-14T11:19:04.541Z,44.67
2018-04-14T11:21:32.362Z,45.03
2018-04-14T11:23:59.920Z,44.10
2018-04-14T11:26:27.452Z,42.27
2018-04-14T11:28:55.025Z,42.93
2018-04-14T11:31:22.588Z,45.23
2018-04-14T11:33:50.293Z,44.50
2018-04-14T11:36:17.873Z,42.07
2018-04-14T11:38:45.451Z,44.80
2018-04-14T11:41:13.012Z,44.30
2018-04-14T11:43:40.568Z,42.33
2018-04-14T11:46:08.119Z,40.93
2018-04-14T11:48:35.717Z,42.83
2018-04-14T11:51:03.272Z,43.57
2018-04-14T11:53:30.876Z,43.80
2018-04-14T11:55:58.428Z,42.77
2018-04-14T11:58:26.018Z,44.70
2018-04-14T12:00:53.571Z,43.37
2018-04-14T12:03:22.208Z,40.10
2018-04-14T12:05:49.761Z,39.90
2018-04-14T12:08:17.816Z,39.93
2018-04-14T12:10:45.349Z,38.67
2018-04-14T12:13:13.227Z,42.63
2018-04-14T12:15:40.793Z,39.33
2018-04-14T12:18:08.698Z,38.90
2018-04-14T12:20:36.252Z,40.00
2018-04-14T12:23:04.062Z,37.03
2018-04-14T12:25:31.620Z,38.40
2018-04-14T12:27:59.171Z,39.63
2018-04-14T12:30:26.773Z,37.53
2018-04-14T12:32:54.318Z,36.33
2018-04-14T12:35:21.879Z,35.87
2018-04-14T12:37:49.542Z,37.80
2018-04-14T12:40:17.141Z,36.70
2018-04-14T12:42:44.686Z,37.23
2018-04-14T12:45:12.295Z,36.50
2018-04-14T12:47:39.862Z,34.80
2018-04-14T12:50:07.518Z,35.27
2018-04-14T12:52:35.025Z,36.40
2018-04-14T12:55:03.205Z,33.90
2018-04-14T12:57:30.774Z,33.10
2018-04-14T12:59:58.820Z,35.90
2018-04-14T13:02:26.361Z,37.00
2018-04-14T13:04:54.339Z,37.17
2018-04-14T13:07:21.871Z,39.27
2018-04-14T13:09:49.837Z,37.23
2018-04-14T13:12:17.412Z,35.77
2018-04-14T13:14:44.945Z,39.27
2018-04-14T13:17:12.504Z,35.27
2018-04-14T13:19:40.053Z,37.80
2018-04-14T13:22:07.692Z,37.87
2018-04-14T13:24:35.231Z,38.70
2018-04-14T13:27:02.799Z,35.50
2018-04-14T13:29:30.323Z,34.80
2018-04-14T13:31:57.895Z,35.77
2018-04-14T13:34:25.453Z,33.67
2018-04-14T13:36:53.045Z,35.67
2018-04-14T13:39:20.597Z,34.73
2018-04-14T13:41:48.204Z,33.20
2018-04-14T13:44:15.730Z,34.63
2018-04-14T13:46:43.315Z,36.93
2018-04-14T13:49:10.843Z,37.30
2018-04-14T13:51:38.463Z,34.50
2018-04-14T13:54:06.020Z,37.30
2018-04-14T13:56:33.576Z,35.47
2018-04-14T13:59:01.135Z,34.77
2018-04-14T14:01:28.716Z,35.50
2018-04-14T14:03:56.276Z,35.77
2018-04-14T14:06:23.837Z,36.23
2018-04-14T14:08:51.436Z,35.67
2018-04-14T14:11:19.035Z,36.00
2018-04-14T14:13:46.576Z,35.03
2018-04-14T14:16:14.119Z,34.63
2018-04-14T14:18:41.659Z,34.07
2018-04-14T14:21:09.302Z,35.10
2018-04-14T14:23:36.874Z,31.93
2018-04-14T14:26:04.428Z,32.67
2018-04-14T14:28:31.994Z,33.47
2018-04-14T14:31:00.128Z,33.50
2018-04-14T14:33:27.675Z,34.37
2018-04-14T14:35:55.313Z,35.57
2018-04-14T14:38:22.804Z,33.93
2018-04-14T14:40:50.365Z,34.13
2018-04-14T14:43:17.903Z,33.07
2018-04-14T14:45:45.430Z,33.87
2018-04-14T14:48:12.997Z,32.37
2018-04-14T14:50:40.547Z,33.10
2018-04-14T14:53:08.107Z,32.27
2018-04-14T14:55:36.161Z,33.57
2018-04-14T14:58:03.714Z,31.47
2018-04-14T15:00:31.756Z,31.20
2018-04-14T15:02:59.318Z,30.57
2018-04-14T15:05:27.204Z,32.43
2018-04-14T15:07:54.777Z,34.33
2018-04-14T15:10:22.357Z,32.67
2018-04-14T15:12:50.919Z,32.90
2018-04-14T15:15:18.465Z,31.97
2018-04-14T15:17:46.022Z,33.27
2018-04-14T15:20:13.579Z,32.93
2018-04-14T15:22:41.107Z,31.97
2018-04-14T15:25:08.740Z,34.60
2018-04-14T15:27:36.283Z,32.17
2018-04-14T15:30:03.840Z,32.93
2018-04-14T15:32:31.422Z,32.17
2018-04-14T15:34:58.983Z,31.97
2018-04-14T15:37:27.167Z,32.00
2018-04-14T15:39:54.724Z,31.33
2018-04-14T15:42:22.746Z,30.13
2018-04-14T15:44:50.307Z,31.10
2018-04-14T15:47:17.980Z,31.33
2018-04-14T15:49:45.524Z,29.97
2018-04-14T15:52:13.077Z,29.40
2018-04-14T15:54:40.665Z,29.17
2018-04-14T15:57:08.207Z,29.53
2018-04-14T15:59:35.757Z,29.03
2018-04-14T16:02:03.301Z,27.67
2018-04-14T16:04:30.906Z,30.33
2018-04-14T16:06:58.472Z,26.23
2018-04-14T16:09:26.101Z,28.07
2018-04-14T16:11:53.682Z,25.73
2018-04-14T16:14:21.285Z,24.80
2018-04-14T16:16:48.811Z,23.23
2018-04-14T16:19:16.447Z,27.83
2018-04-14T16:21:44.046Z,27.00
2018-04-14T16:24:11.672Z,27.30
2018-04-14T16:26:39.206Z,28.27
2018-04-14T16:29:06.783Z,27.67
2018-04-14T16:31:34.378Z,27.20
2018-04-14T16:34:01.997Z,28.83
2018-04-14T16:36:29.532Z,26.83
2018-04-14T16:38:57.635Z,26.70
2018-04-14T16:41:25.195Z,27.47
2018-04-14T16:43:53.306Z,27.20
2018-04-14T16:46:20.851Z,27.53
2018-04-14T16:48:48.715Z,26.77
2018-04-14T16:51:16.262Z,27.43
2018-04-14T16:53:44.223Z,25.93
2018-04-14T16:56:11.777Z,27.63
2018-04-14T16:58:39.314Z,26.77
2018-04-14T17:01:06.891Z,26.90
2018-04-14T17:03:34.437Z,28.07
2018-04-14T17:06:02.030Z,27.80
2018-04-14T17:08:29.607Z,26.57
2018-04-14T17:10:57.166Z,26.13
2018-04-14T17:13:24.708Z,26.30
2018-04-14T17:15:52.269Z,26.23
2018-04-14T17:18:19.798Z,27.23
2018-04-14T17:20:47.383Z,26.13
2018-04-14T17:23:14.929Z,26.33
2018-04-14T17:25:42.599Z,25.17
2018-04-14T17:28:10.152Z,26.90
2018-04-14T17:30:39.159Z,27.17
2018-04-14T17:33:06.694Z,26.63
2018-04-14T17:35:34.651Z,27.77
2018-04-14T17:38:02.228Z,26.50
2018-04-14T17:40:29.981Z,27.30
2018-04-14T17:42:57.513Z,25.77
2018-04-14T17:45:25.054Z,24.23
2018-04-14T17:47:52.592Z,25.93
2018-04-14T17:50:20.146Z,26.87
2018-04-14T17:52:47.708Z,28.13
2018-04-14T17:55:15.305Z,28.30
2018-04-14T17:57:42.869Z,28.57
2018-04-14T18:00:10.397Z,28.10
2018-04-14T18:02:37.941Z,28.93
2018-04-14T18:05:05.493Z,29.40
2018-04-14T18:07:33.022Z,29.70
2018-04-14T18:10:00.562Z,28.93
2018-04-14T18:12:28.114Z,28.97
2018-04-14T18:14:55.750Z,29.50
2018-04-14T18:17:23.360Z,29.47
2018-04-14T18:19:50.874Z,27.20
2018-04-14T18:22:18.437Z,29.07
2018-04-14T18:24:45.965Z,28.60
2018-04-14T18:27:13.529Z,27.63
2018-04-14T18:29:41.083Z,28.43
2018-04-14T18:32:08.657Z,28.70
2018-04-14T18:34:36.194Z,28.37
2018-04-14T18:37:03.778Z,29.00
2018-04-14T18:39:31.316Z,30.00
2018-04-14T18:41:58.883Z,29.87
2018-04-14T18:44:26.426Z,28.77
2018-04-14T18:46:53.971Z,27.30
2018-04-14T18:49:21.535Z,26.70
2018-04-14T18:51:49.076Z,26.33
2018-04-14T18:54:16.631Z,26.30
2018-04-14T18:56:44.210Z,27.60
2018-04-14T18:59:11.739Z,24.90
2018-04-14T19:01:39.289Z,26.50
2018-04-14T19:04:06.837Z,26.03
2018-04-14T19:06:34.439Z,23.67
2018-04-14T19:09:01.960Z,24.80
2018-04-14T19:11:29.527Z,23.60
2018-04-14T19:13:57.083Z,25.27
2018-04-14T19:16:24.655Z,26.90
2018-04-14T19:18:52.200Z,27.73
2018-04-14T19:21:19.739Z,30.63
2018-04-14T19:23:50.223Z,31.87
2018-04-14T19:26:17.781Z,31.60
2018-04-14T19:28:45.361Z,28.73
2018-04-14T19:31:12.890Z,33.60
2018-04-14T19:33:40.460Z,33.50
2018-04-14T19:36:08.018Z,34.40
2018-04-14T19:38:35.605Z,33.47
2018-04-14T19:41:03.155Z,31.30
2018-04-14T19:43:30.725Z,29.03
2018-04-14T19:45:58.272Z,26.17
2018-04-14T19:48:25.865Z,25.60
2018-04-14T19:50:53.400Z,25.60
2018-04-14T19:53:21.571Z,25.10
2018-04-14T19:55:49.091Z,26.00
2018-04-14T19:58:16.793Z,25.03
2018-04-14T20:00:44.337Z,25.53
2018-04-14T20:03:13.025Z,26.20
2018-04-14T20:05:40.606Z,25.50
2018-04-14T20:08:08.711Z,25.20
2018-04-14T20:10:36.266Z,25.57
2018-04-14T20:13:04.471Z,24.47
2018-04-14T20:15:32.029Z,25.07
2018-04-14T20:17:59.666Z,25.73
2018-04-14T20:20:27.229Z,25.27
2018-04-14T20:22:54.772Z,25.33
2018-04-14T20:25:22.407Z,28.10
2018-04-14T20:27:49.953Z,25.47
2018-04-14T20:30:17.527Z,26.50
2018-04-14T20:32:45.080Z,28.80
2018-04-14T20:35:12.669Z,28.43
2018-04-14T20:37:40.204Z,28.93
2018-04-14T20:40:07.757Z,28.47
2018-04-14T20:42:35.289Z,28.90
2018-04-14T20:45:02.874Z,30.73
2018-04-14T20:47:30.404Z,30.13
2018-04-14T20:49:58.011Z,29.00
2018-04-14T20:52:25.583Z,32.27
2018-04-14T20:54:53.778Z,30.93
2018-04-14T20:57:21.369Z,33.30
2018-04-14T20:59:49.490Z,35.83
2018-04-14T21:02:17.053Z,35.50
2018-04-14T21:04:44.951Z,34.63
2018-04-14T21:07:12.576Z,35.87
2018-04-14T21:09:40.396Z,35.37
2018-04-14T21:12:07.981Z,35.83
2018-04-14T21:14:35.515Z,36.93
2018-04-14T21:17:03.061Z,36.07
2018-04-14T21:19:30.588Z,36.23
2018-04-14T21:21:58.131Z,36.67
2018-04-14T21:24:25.731Z,34.83
2018-04-14T21:26:53.324Z,36.57
2018-04-14T21:29:20.846Z,37.50
2018-04-14T21:31:48.455Z,38.23
2018-04-14T21:34:15.987Z,37.90
2018-04-14T21:36:43.579Z,38.43
2018-04-14T21:39:11.130Z,38.60
2018-04-14T21:41:38.710Z,39.67
2018-04-14T21:44:06.250Z,40.20
2018-04-14T21:46:33.830Z,41.47
2018-04-14T21:49:01.378Z,42.70
2018-04-14T21:51:28.930Z,40.50
2018-04-14T21:53:56.471Z,43.47
2018-04-14T21:56:24.065Z,44.67
2018-04-14T21:58:51.591Z,42.10
2018-04-14T22:01:19.161Z,44.60
2018-04-14T22:03:46.700Z,47.13
2018-04-14T22:06:14.347Z,41.70
2018-04-14T22:08:41.914Z,44.10
2018-04-14T22:11:10.137Z,44.67
2018-04-14T22:13:37.729Z,44.37
2018-04-14T22:16:05.806Z,43.90
2018-04-14T22:18:33.371Z,47.57
2018-04-14T22:21:01.252Z,45.10
2018-04-14T22:23:28.811Z,45.60
2018-04-14T22:25:56.699Z,44.53
2018-04-14T22:28:24.274Z,46.50
2018-04-14T22:30:51.795Z,45.20
2018-04-14T22:33:19.451Z,46.37
2018-04-14T22:35:46.990Z,46.93
2018-04-14T22:38:14.577Z,44.37
2018-04-14T22:40:42.165Z,45.70
2018-04-14T22:43:09.789Z,45.83
2018-04-14T22:45:37.310Z,45.17
2018-04-14T22:48:04.850Z,45.90
2018-04-14T22:50:32.400Z,45.37
2018-04-14T22:52:59.972Z,45.43
2018-04-14T22:55:27.529Z,45.23
2018-04-14T22:57:55.105Z,44.47
2018-04-14T23:00:22.648Z,40.73
2018-04-14T23:02:50.219Z,40.57
2018-04-14T23:05:17.758Z,39.97
2018-04-14T23:07:45.330Z,39.27
2018-04-14T23:10:12.885Z,41.87
2018-04-14T23:12:41.140Z,42.37
2018-04-14T23:15:08.675Z,42.67
2018-04-14T23:17:36.743Z,43.17
2018-04-14T23:20:04.315Z,39.17
2018-04-14T23:22:32.197Z,34.87
2018-04-14T23:24:59.811Z,32.90
2018-04-14T23:27:27.630Z,29.70
2018-04-14T23:29:55.239Z,23.70
2018-04-14T23:32:22.804Z,22.27
2018-04-14T23:34:50.385Z,21.37
2018-04-14T23:37:17.937Z,19.50
2018-04-14T23:39:45.485Z,19.90
2018-04-14T23:42:13.041Z,17.97
2018-04-14T23:44:40.604Z,17.80
2018-04-14T23:47:08.160Z,18.30
2018-04-14T23:49:35.739Z,17.97
2018-04-14T23:52:03.270Z,18.07
2018-04-14T23:54:30.830Z,16.50
2018-04-14T23:56:58.357Z,17.23
2018-04-14T23:59:25.981Z,15.77
